Webster, Michigan
Current Conditions -  °F | °C
As of 3:53 AM on Friday 31 Oct 2014 (Local Time) from KARB Reporting Station
Overcast Overcast  
Wind Chill: 39°   Ceiling: 3300
Heat Index: 43°   Visibility: 10mi
Dew Point: 35°   Wind: 7mph
Humidity: 74%   Direction: 230°SW
Pressure: 29.95"   Gusts: NA
Location:  42.3528°N, 83.8974°W
Report Text: KARB 310753Z AUTO 23006KT 10SM BKN033 OVC041 06/02 A2995 RMK AO2 RAB16E39 SLP144 P0000 T00610017
Loading
Personal Weather Stations






























Interactive Weather Map
Tropical Storm Tracking
New forecast layout! Learn more

10-Day Weather Forecast

Advertisements
Track Severe Weather on mobile